Atlas — SV6729 — position and weather

sailwx.info

Track history (hours):
 
Tides and Currents Weather Stations Pressure Air Temp Water Temp Dewpoint Dewpoint Depression Visibility Wind Speed Wind Dir Waves Ship Positions

Atlas

Last reported at 2017-Apr-27 10:54 UTC. Time now 2017-Apr-27 16:41 UTC.
Position N 37°57' E 023°37'.

Length 29 m; draft 5 m.

Type: Tug. MMSI: 239611000.

Date/timePositionNaut miles runAvg speedWind from/ knotsBaromVisibWave heightAir tempDewpointWater temp
2017-Apr-27 10:54N 37°57' E 023°37'0 0.0
2017-Apr-27 10:30N 37°57' E 023°37'0 0.0
2017-Apr-27 10:00N 37°57' E 023°37'0 0.0
2017-Apr-27 09:30N 37°57' E 023°37'0 0.0
2017-Apr-27 09:00N 37°57' E 023°37'0 0.0
2017-Apr-27 08:31N 37°57' E 023°37'0 0.0
2017-Apr-27 08:00N 37°57' E 023°37'0 0.0
2017-Apr-27 07:30N 37°57' E 023°37'0 0.0
2017-Apr-27 07:00N 37°57' E 023°37'0 0.0
2017-Apr-27 06:30N 37°57' E 023°37'0 0.0
2017-Apr-27 06:00N 37°57' E 023°37'1 1.1
2017-Apr-27 05:30N 37°57' E 023°36'0 0.8
2017-Apr-27 05:00N 37°57' E 023°36'1 1.1
2017-Apr-27 04:30N 37°57' E 023°36'0 0.1
2017-Apr-27 04:00N 37°57' E 023°36'0 0.9
2017-Apr-27 03:30N 37°57' E 023°37'0 0.0
2017-Apr-27 03:00N 37°57' E 023°37'0 0.0
2017-Apr-26 11:40N 37°57' E 023°37'0 1.8
2017-Apr-26 11:30N 37°57' E 023°36'0 0.5
2017-Apr-26 11:00N 37°57' E 023°36'2 3.3
2017-Apr-26 10:30N 37°57' E 023°34'0 0.3
2017-Apr-26 10:00N 37°57' E 023°34'1 2.9
2017-Apr-26 09:30N 37°57' E 023°36'1 1.5
2017-Apr-26 09:00N 37°58' E 023°36'0 0.0
2017-Apr-26 08:30N 37°58' E 023°36'1 1.7
2017-Apr-26 08:00N 37°57' E 023°36'1 1.5
2017-Apr-26 07:30N 37°57' E 023°37'0 0.0
2017-Apr-26 07:00N 37°57' E 023°37'0 0.0
2017-Apr-26 06:30N 37°57' E 023°37'1 1.2
2017-Apr-26 06:00N 37°57' E 023°36'0 0.9
2017-Apr-26 05:30N 37°57' E 023°36'1 1.5
2017-Apr-26 05:00N 37°57' E 023°36'0 0.1
2017-Apr-26 04:30N 37°57' E 023°36'1 1.5
2017-Apr-26 04:00N 37°58' E 023°36'0 0.8
2017-Apr-26 03:30N 37°57' E 023°37'0 0.0
2017-Apr-26 03:00N 37°57' E 023°37'0 0.0
2017-Apr-25 13:06N 37°57' E 023°37'0 0.0
2017-Apr-25 13:00N 37°57' E 023°37'3 6.0
2017-Apr-25 12:30N 37°58' E 023°33'5 9.4
2017-Apr-25 12:00N 38°03' E 023°32'0 0.1
2017-Apr-25 11:30N 38°02' E 023°32'2 3.1
2017-Apr-25 11:01N 38°01' E 023°31'1 1.0
2017-Apr-25 10:30N 38°01' E 023°31'0 0.0
2017-Apr-25 10:01N 38°01' E 023°31'0 0.0
2017-Apr-25 09:31N 38°01' E 023°31'2 3.8
2017-Apr-25 09:01N 38°02' E 023°33'0 0.5
2017-Apr-25 08:31N 38°02' E 023°32'0 0.2
2017-Apr-25 08:00N 38°02' E 023°32'1 1.3
2017-Apr-25 07:31N 38°02' E 023°33'2 3.6
2017-Apr-25 07:01N 38°02' E 023°35'1 1.9
2017-Apr-25 06:30N 38°02' E 023°34'1 2.0
2017-Apr-25 06:01N 38°01' E 023°34'3 6.6
2017-Apr-25 05:31N 37°57' E 023°33'2 4.7
2017-Apr-25 05:00N 37°57' E 023°36'1 1.2
2017-Apr-25 04:30N 37°57' E 023°36'1 1.1
2017-Apr-25 04:01N 37°57' E 023°36'1 1.4
2017-Apr-25 03:31N 37°57' E 023°37'0 0.0
2017-Apr-25 03:00N 37°57' E 023°37'0 0.0
2017-Apr-24 11:45N 37°57' E 023°37'0 0.0
2017-Apr-24 11:31N 37°57' E 023°37'0 0.0
2017-Apr-24 11:01N 37°57' E 023°37'0 0.0
2017-Apr-24 10:31N 37°57' E 023°37'0 0.0
2017-Apr-24 10:01N 37°57' E 023°37'0 0.0
2017-Apr-24 09:31N 37°57' E 023°37'2 3.1
2017-Apr-24 09:01N 37°56' E 023°38'2 3.5
2017-Apr-24 08:31N 37°57' E 023°36'1 2.2
2017-Apr-24 08:01N 37°57' E 023°35'1 1.4
2017-Apr-24 07:30N 37°57' E 023°36'1 1.7
2017-Apr-24 07:01N 37°57' E 023°37'0 0.0
2017-Apr-24 06:30N 37°57' E 023°37'0 0.0
2017-Apr-24 06:00N 37°57' E 023°37'0 0.0
2017-Apr-24 05:31N 37°57' E 023°37'0 0.0
2017-Apr-24 05:00N 37°57' E 023°37'0 0.0
2017-Apr-24 04:31N 37°57' E 023°37'0 0.0
2017-Apr-24 04:01N 37°57' E 023°37'0 0.0
2017-Apr-24 03:30N 37°57' E 023°37'0 0.0
2017-Apr-24 03:01N 37°57' E 023°37'0 0.0
2017-Apr-22 21:31N 37°57' E 023°37'0 0.0
2017-Apr-22 21:30N 37°57' E 023°37'0 0.0
2017-Apr-22 21:01N 37°57' E 023°37'1 1.4
2017-Apr-22 20:30N 37°57' E 023°36'1 1.7
2017-Apr-22 20:01N 37°57' E 023°36'1 1.3
2017-Apr-22 19:30N 37°57' E 023°36'0 0.0
2017-Apr-22 19:01N 37°57' E 023°36'0 0.3
2017-Apr-22 18:30N 37°57' E 023°36'0 0.6
2017-Apr-22 18:00N 37°58' E 023°36'0 0.5
2017-Apr-22 17:30N 37°57' E 023°37'0 0.0
2017-Apr-22 17:00N 37°57' E 023°37'0 0.0
2017-Apr-22 16:30N 37°57' E 023°37'0 0.0
2017-Apr-22 16:00N 37°57' E 023°37'0 0.0
2017-Apr-22 15:30N 37°57' E 023°37'0 0.0
2017-Apr-22 15:01N 37°57' E 023°37'1 1.3
2017-Apr-22 14:31N 37°57' E 023°36'1 0.9
2017-Apr-22 13:30N 37°57' E 023°36'0 0.1
2017-Apr-22 13:00N 37°57' E 023°36'0 0.1
2017-Apr-22 12:30N 37°57' E 023°36'0 0.0
2017-Apr-22 12:00N 37°57' E 023°36'0 0.0
2017-Apr-22 11:31N 37°57' E 023°36'0 0.2
2017-Apr-22 11:01N 37°57' E 023°36'0 0.8
2017-Apr-22 10:30N 37°57' E 023°36'0 0.6
2017-Apr-22 10:01N 37°57' E 023°37'0 0.2
2017-Apr-22 09:30N 37°57' E 023°37'1 2.0
2017-Apr-22 09:00N 37°57' E 023°35'1 1.3
2017-Apr-22 08:30N 37°57' E 023°36'1 1.3
2017-Apr-22 08:00N 37°57' E 023°37'0 0.0
2017-Apr-22 07:30N 37°57' E 023°37'0 0.0
2017-Apr-22 07:00N 37°57' E 023°37'0 0.1
2017-Apr-22 06:30N 37°57' E 023°37'0 0.5
2017-Apr-22 06:00N 37°58' E 023°36'1 1.2
2017-Apr-22 05:31N 37°57' E 023°36'0 0.7
2017-Apr-22 05:00N 37°57' E 023°37'0 0.0
2017-Apr-22 04:30N 37°57' E 023°37'0 0.5
2017-Apr-22 04:00N 37°58' E 023°36'0 0.5
2017-Apr-22 03:30N 37°57' E 023°37'0 0.0
2017-Apr-22 03:00N 37°57' E 023°37'0 0.0
2017-Apr-21 12:23N 37°57' E 023°37'0 0.7
2017-Apr-21 12:00N 37°58' E 023°36'0 0.0
2017-Apr-21 11:30N 37°58' E 023°36'0 0.0
2017-Apr-21 11:00N 37°58' E 023°36'0 0.6
2017-Apr-21 10:30N 37°58' E 023°36'1 2.3
2017-Apr-21 10:00N 37°56' E 023°36'1 2.2
2017-Apr-21 09:30N 37°57' E 023°37'0 0.0
2017-Apr-21 09:00N 37°57' E 023°37'0 0.0
2017-Apr-21 08:30N 37°57' E 023°37'0 0.0
2017-Apr-21 08:00N 37°57' E 023°37'0 0.0
2017-Apr-21 07:30N 37°57' E 023°37'0 0.0
2017-Apr-21 07:00N 37°57' E 023°37'0 0.0
2017-Apr-21 06:30N 37°57' E 023°37'0 0.7
2017-Apr-21 06:00N 37°57' E 023°36'0 0.4
2017-Apr-21 05:30N 37°57' E 023°36'1 1.9
2017-Apr-21 05:00N 37°57' E 023°37'1 1.7
2017-Apr-21 04:30N 37°57' E 023°36'0 0.6
2017-Apr-21 04:00N 37°57' E 023°37'0 0.0
2017-Apr-21 03:30N 37°57' E 023°37'0 0.0
2017-Apr-21 03:00N 37°57' E 023°37'0 0.0
2017-Apr-20 20:35N 37°57' E 023°37'0 0.3
2017-Apr-20 20:30N 37°57' E 023°37'1 1.1
2017-Apr-20 20:01N 37°57' E 023°36'1 1.1
2017-Apr-20 19:30N 37°57' E 023°37'0 0.1
2017-Apr-20 19:00N 37°57' E 023°37'0 0.0
2017-Apr-20 18:31N 37°57' E 023°37'0 0.0
2017-Apr-20 18:01N 37°57' E 023°37'1 2.9
2017-Apr-20 17:30N 37°57' E 023°35'4 7.7
2017-Apr-20 17:01N 38°01' E 023°35'1 1.7
2017-Apr-20 16:30N 38°01' E 023°35'0 0.0
2017-Apr-20 16:00N 38°01' E 023°35'0 0.0
2017-Apr-20 15:30N 38°01' E 023°35'0 0.0
2017-Apr-20 15:00N 38°01' E 023°35'4 8.0
2017-Apr-20 14:31N 38°02' E 023°31'1 1.4
2017-Apr-20 13:30N 38°02' E 023°32'0 0.4
2017-Apr-20 13:00N 38°02' E 023°32'3 5.6
2017-Apr-20 12:31N 37°59' E 023°33'3 6.8
2017-Apr-20 12:01N 37°57' E 023°37'0 0.1
2017-Apr-20 11:31N 37°57' E 023°37'1 1.3
2017-Apr-20 11:01N 37°57' E 023°36'1 2.4
2017-Apr-20 10:30N 37°56' E 023°36'1 2.6
2017-Apr-20 10:00N 37°57' E 023°36'1 1.3
2017-Apr-20 09:30N 37°57' E 023°36'0 0.6
2017-Apr-20 09:00N 37°56' E 023°36'1 2.3
2017-Apr-20 08:31N 37°58' E 023°36'1 1.2
2017-Apr-20 08:00N 37°57' E 023°36'0 1.0
2017-Apr-20 07:30N 37°58' E 023°36'0 0.0
2017-Apr-20 07:00N 37°58' E 023°36'0 0.6
2017-Apr-20 06:30N 37°57' E 023°36'0 0.2
2017-Apr-20 06:01N 37°57' E 023°36'0 0.3
2017-Apr-20 05:30N 37°57' E 023°36'0 0.5
2017-Apr-20 05:01N 37°57' E 023°36'1 1.2
2017-Apr-20 04:30N 37°57' E 023°37'0 0.0
2017-Apr-20 04:00N 37°57' E 023°37'0 0.0
2017-Apr-20 03:30N 37°57' E 023°37'0 0.0
2017-Apr-20 03:00N 37°57' E 023°37'0 0.0
2017-Apr-19 10:59N 37°57' E 023°37'3 6.3
2017-Apr-19 10:30N 37°58' E 023°33'4 8.2
2017-Apr-19 10:00N 38°02' E 023°32'0 0.0
2017-Apr-19 09:31N 38°02' E 023°32'0 0.0
2017-Apr-19 09:01N 38°02' E 023°32'0 0.0
2017-Apr-19 08:31N 38°02' E 023°32'0 0.0
2017-Apr-19 08:01N 38°02' E 023°32'0 0.3
2017-Apr-19 07:30N 38°02' E 023°32'0 0.3
2017-Apr-19 07:00N 38°02' E 023°32'0 0.0
2017-Apr-19 06:31N 38°02' E 023°32'2 3.8
2017-Apr-19 06:00N 38°02' E 023°30'0 0.3
2017-Apr-19 05:30N 38°02' E 023°30'0 0.2
2017-Apr-19 05:01N 38°02' E 023°30'4 8.1
2017-Apr-19 04:30N 37°58' E 023°33'2 5.0
2017-Apr-19 04:00N 37°57' E 023°36'1 1.2
2017-Apr-19 03:30N 37°57' E 023°37'0 0.0
2017-Apr-19 02:59N 37°57' E 023°37'0 0.0
2017-Apr-18 11:05N 37°57' E 023°37'0 0.1
2017-Apr-18 11:00N 37°57' E 023°37'0 0.0
2017-Apr-18 10:30N 37°57' E 023°37'0 0.0
2017-Apr-18 10:01N 37°57' E 023°37'0 0.0
2017-Apr-18 09:30N 37°57' E 023°37'2 4.3
2017-Apr-18 09:00N 37°57' E 023°34'0 0.6
2017-Apr-18 08:30N 37°58' E 023°34'0 0.0
2017-Apr-18 08:00N 37°58' E 023°34'0 0.0
2017-Apr-18 07:30N 37°58' E 023°34'0 0.6
2017-Apr-18 07:01N 37°57' E 023°34'2 4.0
2017-Apr-18 06:30N 37°57' E 023°37'0 0.0
2017-Apr-18 06:00N 37°57' E 023°37'0 0.1
2017-Apr-18 05:30N 37°57' E 023°37'0 0.1
2017-Apr-18 05:00N 37°57' E 023°37'0 0.0
2017-Apr-18 04:31N 37°57' E 023°37'0 0.8
2017-Apr-18 04:00N 37°57' E 023°36'0 0.8
2017-Apr-18 03:31N 37°57' E 023°37'0 0.0
2017-Apr-18 03:00N 37°57' E 023°37'  
Track history (hours):
 
Tides and Currents Weather Stations Pressure Air Temp Water Temp Dewpoint Dewpoint Depression Visibility Wind Speed Wind Dir Waves Ship Positions

Atlas

Last reported at 2017-Apr-27 10:54 UTC. Time now 2017-Apr-27 16:41 UTC.
Position N 37°57' E 023°37'.

Length 29 m; draft 5 m.

Type: Tug. MMSI: 239611000.

Date/timePositionNaut miles runAvg speedWind from/ knotsBaromVisibWave heightAir tempDewpointWater temp
2017-Apr-27 10:54N 37°57' E 023°37'0 0.0
2017-Apr-27 10:30N 37°57' E 023°37'0 0.0
2017-Apr-27 10:00N 37°57' E 023°37'0 0.0
2017-Apr-27 09:30N 37°57' E 023°37'0 0.0
2017-Apr-27 09:00N 37°57' E 023°37'0 0.0
2017-Apr-27 08:31N 37°57' E 023°37'0 0.0
2017-Apr-27 08:00N 37°57' E 023°37'0 0.0
2017-Apr-27 07:30N 37°57' E 023°37'0 0.0
2017-Apr-27 07:00N 37°57' E 023°37'0 0.0
2017-Apr-27 06:30N 37°57' E 023°37'0 0.0
2017-Apr-27 06:00N 37°57' E 023°37'1 1.1
2017-Apr-27 05:30N 37°57' E 023°36'0 0.8
2017-Apr-27 05:00N 37°57' E 023°36'1 1.1
2017-Apr-27 04:30N 37°57' E 023°36'0 0.1
2017-Apr-27 04:00N 37°57' E 023°36'0 0.9
2017-Apr-27 03:30N 37°57' E 023°37'0 0.0
2017-Apr-27 03:00N 37°57' E 023°37'0 0.0
2017-Apr-26 11:40N 37°57' E 023°37'0 1.8
2017-Apr-26 11:30N 37°57' E 023°36'0 0.5
2017-Apr-26 11:00N 37°57' E 023°36'2 3.3
2017-Apr-26 10:30N 37°57' E 023°34'0 0.3
2017-Apr-26 10:00N 37°57' E 023°34'1 2.9
2017-Apr-26 09:30N 37°57' E 023°36'1 1.5
2017-Apr-26 09:00N 37°58' E 023°36'0 0.0
2017-Apr-26 08:30N 37°58' E 023°36'1 1.7
2017-Apr-26 08:00N 37°57' E 023°36'1 1.5
2017-Apr-26 07:30N 37°57' E 023°37'0 0.0
2017-Apr-26 07:00N 37°57' E 023°37'0 0.0
2017-Apr-26 06:30N 37°57' E 023°37'1 1.2
2017-Apr-26 06:00N 37°57' E 023°36'0 0.9
2017-Apr-26 05:30N 37°57' E 023°36'1 1.5
2017-Apr-26 05:00N 37°57' E 023°36'0 0.1
2017-Apr-26 04:30N 37°57' E 023°36'1 1.5
2017-Apr-26 04:00N 37°58' E 023°36'0 0.8
2017-Apr-26 03:30N 37°57' E 023°37'0 0.0
2017-Apr-26 03:00N 37°57' E 023°37'0 0.0
2017-Apr-25 13:06N 37°57' E 023°37'0 0.0
2017-Apr-25 13:00N 37°57' E 023°37'3 6.0
2017-Apr-25 12:30N 37°58' E 023°33'5 9.4
2017-Apr-25 12:00N 38°03' E 023°32'0 0.1
2017-Apr-25 11:30N 38°02' E 023°32'2 3.1
2017-Apr-25 11:01N 38°01' E 023°31'1 1.0
2017-Apr-25 10:30N 38°01' E 023°31'0 0.0
2017-Apr-25 10:01N 38°01' E 023°31'0 0.0
2017-Apr-25 09:31N 38°01' E 023°31'2 3.8
2017-Apr-25 09:01N 38°02' E 023°33'0 0.5
2017-Apr-25 08:31N 38°02' E 023°32'0 0.2
2017-Apr-25 08:00N 38°02' E 023°32'1 1.3
2017-Apr-25 07:31N 38°02' E 023°33'2 3.6
2017-Apr-25 07:01N 38°02' E 023°35'1 1.9
2017-Apr-25 06:30N 38°02' E 023°34'1 2.0
2017-Apr-25 06:01N 38°01' E 023°34'3 6.6
2017-Apr-25 05:31N 37°57' E 023°33'2 4.7
2017-Apr-25 05:00N 37°57' E 023°36'1 1.2
2017-Apr-25 04:30N 37°57' E 023°36'1 1.1
2017-Apr-25 04:01N 37°57' E 023°36'1 1.4
2017-Apr-25 03:31N 37°57' E 023°37'0 0.0
2017-Apr-25 03:00N 37°57' E 023°37'0 0.0
2017-Apr-24 11:45N 37°57' E 023°37'0 0.0
2017-Apr-24 11:31N 37°57' E 023°37'0 0.0
2017-Apr-24 11:01N 37°57' E 023°37'0 0.0
2017-Apr-24 10:31N 37°57' E 023°37'0 0.0
2017-Apr-24 10:01N 37°57' E 023°37'0 0.0
2017-Apr-24 09:31N 37°57' E 023°37'2 3.1
2017-Apr-24 09:01N 37°56' E 023°38'2 3.5
2017-Apr-24 08:31N 37°57' E 023°36'1 2.2
2017-Apr-24 08:01N 37°57' E 023°35'1 1.4
2017-Apr-24 07:30N 37°57' E 023°36'1 1.7
2017-Apr-24 07:01N 37°57' E 023°37'0 0.0
2017-Apr-24 06:30N 37°57' E 023°37'0 0.0
2017-Apr-24 06:00N 37°57' E 023°37'0 0.0
2017-Apr-24 05:31N 37°57' E 023°37'0 0.0
2017-Apr-24 05:00N 37°57' E 023°37'0 0.0
2017-Apr-24 04:31N 37°57' E 023°37'0 0.0
2017-Apr-24 04:01N 37°57' E 023°37'0 0.0
2017-Apr-24 03:30N 37°57' E 023°37'0 0.0
2017-Apr-24 03:01N 37°57' E 023°37'0 0.0
2017-Apr-22 21:31N 37°57' E 023°37'0 0.0
2017-Apr-22 21:30N 37°57' E 023°37'0 0.0
2017-Apr-22 21:01N 37°57' E 023°37'1 1.4
2017-Apr-22 20:30N 37°57' E 023°36'1 1.7
2017-Apr-22 20:01N 37°57' E 023°36'1 1.3
2017-Apr-22 19:30N 37°57' E 023°36'0 0.0
2017-Apr-22 19:01N 37°57' E 023°36'0 0.3
2017-Apr-22 18:30N 37°57' E 023°36'0 0.6
2017-Apr-22 18:00N 37°58' E 023°36'0 0.5
2017-Apr-22 17:30N 37°57' E 023°37'0 0.0
2017-Apr-22 17:00N 37°57' E 023°37'0 0.0
2017-Apr-22 16:30N 37°57' E 023°37'0 0.0
2017-Apr-22 16:00N 37°57' E 023°37'0 0.0
2017-Apr-22 15:30N 37°57' E 023°37'0 0.0
2017-Apr-22 15:01N 37°57' E 023°37'1 1.3
2017-Apr-22 14:31N 37°57' E 023°36'1 0.9
2017-Apr-22 13:30N 37°57' E 023°36'0 0.1
2017-Apr-22 13:00N 37°57' E 023°36'0 0.1
2017-Apr-22 12:30N 37°57' E 023°36'0 0.0
2017-Apr-22 12:00N 37°57' E 023°36'0 0.0
2017-Apr-22 11:31N 37°57' E 023°36'0 0.2
2017-Apr-22 11:01N 37°57' E 023°36'0 0.8
2017-Apr-22 10:30N 37°57' E 023°36'0 0.6
2017-Apr-22 10:01N 37°57' E 023°37'0 0.2
2017-Apr-22 09:30N 37°57' E 023°37'1 2.0
2017-Apr-22 09:00N 37°57' E 023°35'1 1.3
2017-Apr-22 08:30N 37°57' E 023°36'1 1.3
2017-Apr-22 08:00N 37°57' E 023°37'0 0.0
2017-Apr-22 07:30N 37°57' E 023°37'0 0.0
2017-Apr-22 07:00N 37°57' E 023°37'0 0.1
2017-Apr-22 06:30N 37°57' E 023°37'0 0.5
2017-Apr-22 06:00N 37°58' E 023°36'1 1.2
2017-Apr-22 05:31N 37°57' E 023°36'0 0.7
2017-Apr-22 05:00N 37°57' E 023°37'0 0.0
2017-Apr-22 04:30N 37°57' E 023°37'0 0.5
2017-Apr-22 04:00N 37°58' E 023°36'0 0.5
2017-Apr-22 03:30N 37°57' E 023°37'0 0.0
2017-Apr-22 03:00N 37°57' E 023°37'0 0.0
2017-Apr-21 12:23N 37°57' E 023°37'0 0.7
2017-Apr-21 12:00N 37°58' E 023°36'0 0.0
2017-Apr-21 11:30N 37°58' E 023°36'0 0.0
2017-Apr-21 11:00N 37°58' E 023°36'0 0.6
2017-Apr-21 10:30N 37°58' E 023°36'1 2.3
2017-Apr-21 10:00N 37°56' E 023°36'1 2.2
2017-Apr-21 09:30N 37°57' E 023°37'0 0.0
2017-Apr-21 09:00N 37°57' E 023°37'0 0.0
2017-Apr-21 08:30N 37°57' E 023°37'0 0.0
2017-Apr-21 08:00N 37°57' E 023°37'0 0.0
2017-Apr-21 07:30N 37°57' E 023°37'0 0.0
2017-Apr-21 07:00N 37°57' E 023°37'0 0.0
2017-Apr-21 06:30N 37°57' E 023°37'0 0.7
2017-Apr-21 06:00N 37°57' E 023°36'0 0.4
2017-Apr-21 05:30N 37°57' E 023°36'1 1.9
2017-Apr-21 05:00N 37°57' E 023°37'1 1.7
2017-Apr-21 04:30N 37°57' E 023°36'0 0.6
2017-Apr-21 04:00N 37°57' E 023°37'0 0.0
2017-Apr-21 03:30N 37°57' E 023°37'0 0.0
2017-Apr-21 03:00N 37°57' E 023°37'0 0.0
2017-Apr-20 20:35N 37°57' E 023°37'0 0.3
2017-Apr-20 20:30N 37°57' E 023°37'1 1.1
2017-Apr-20 20:01N 37°57' E 023°36'1 1.1
2017-Apr-20 19:30N 37°57' E 023°37'0 0.1
2017-Apr-20 19:00N 37°57' E 023°37'0 0.0
2017-Apr-20 18:31N 37°57' E 023°37'0 0.0
2017-Apr-20 18:01N 37°57' E 023°37'1 2.9
2017-Apr-20 17:30N 37°57' E 023°35'4 7.7
2017-Apr-20 17:01N 38°01' E 023°35'1 1.7
2017-Apr-20 16:30N 38°01' E 023°35'0 0.0
2017-Apr-20 16:00N 38°01' E 023°35'0 0.0
2017-Apr-20 15:30N 38°01' E 023°35'0 0.0
2017-Apr-20 15:00N 38°01' E 023°35'4 8.0
2017-Apr-20 14:31N 38°02' E 023°31'1 1.4
2017-Apr-20 13:30N 38°02' E 023°32'0 0.4
2017-Apr-20 13:00N 38°02' E 023°32'3 5.6
2017-Apr-20 12:31N 37°59' E 023°33'3 6.8
2017-Apr-20 12:01N 37°57' E 023°37'0 0.1
2017-Apr-20 11:31N 37°57' E 023°37'1 1.3
2017-Apr-20 11:01N 37°57' E 023°36'1 2.4
2017-Apr-20 10:30N 37°56' E 023°36'1 2.6
2017-Apr-20 10:00N 37°57' E 023°36'1 1.3
2017-Apr-20 09:30N 37°57' E 023°36'0 0.6
2017-Apr-20 09:00N 37°56' E 023°36'1 2.3
2017-Apr-20 08:31N 37°58' E 023°36'1 1.2
2017-Apr-20 08:00N 37°57' E 023°36'0 1.0
2017-Apr-20 07:30N 37°58' E 023°36'0 0.0
2017-Apr-20 07:00N 37°58' E 023°36'0 0.6
2017-Apr-20 06:30N 37°57' E 023°36'0 0.2
2017-Apr-20 06:01N 37°57' E 023°36'0 0.3
2017-Apr-20 05:30N 37°57' E 023°36'0 0.5
2017-Apr-20 05:01N 37°57' E 023°36'1 1.2
2017-Apr-20 04:30N 37°57' E 023°37'0 0.0
2017-Apr-20 04:00N 37°57' E 023°37'0 0.0
2017-Apr-20 03:30N 37°57' E 023°37'0 0.0
2017-Apr-20 03:00N 37°57' E 023°37'0 0.0
2017-Apr-19 10:59N 37°57' E 023°37'3 6.3
2017-Apr-19 10:30N 37°58' E 023°33'4 8.2
2017-Apr-19 10:00N 38°02' E 023°32'0 0.0
2017-Apr-19 09:31N 38°02' E 023°32'0 0.0
2017-Apr-19 09:01N 38°02' E 023°32'0 0.0
2017-Apr-19 08:31N 38°02' E 023°32'0 0.0
2017-Apr-19 08:01N 38°02' E 023°32'0 0.3
2017-Apr-19 07:30N 38°02' E 023°32'0 0.3
2017-Apr-19 07:00N 38°02' E 023°32'0 0.0
2017-Apr-19 06:31N 38°02' E 023°32'2 3.8
2017-Apr-19 06:00N 38°02' E 023°30'0 0.3
2017-Apr-19 05:30N 38°02' E 023°30'0 0.2
2017-Apr-19 05:01N 38°02' E 023°30'4 8.1
2017-Apr-19 04:30N 37°58' E 023°33'2 5.0
2017-Apr-19 04:00N 37°57' E 023°36'1 1.2
2017-Apr-19 03:30N 37°57' E 023°37'0 0.0
2017-Apr-19 02:59N 37°57' E 023°37'0 0.0
2017-Apr-18 11:05N 37°57' E 023°37'0 0.1
2017-Apr-18 11:00N 37°57' E 023°37'0 0.0
2017-Apr-18 10:30N 37°57' E 023°37'0 0.0
2017-Apr-18 10:01N 37°57' E 023°37'0 0.0
2017-Apr-18 09:30N 37°57' E 023°37'2 4.3
2017-Apr-18 09:00N 37°57' E 023°34'0 0.6
2017-Apr-18 08:30N 37°58' E 023°34'0 0.0
2017-Apr-18 08:00N 37°58' E 023°34'0 0.0
2017-Apr-18 07:30N 37°58' E 023°34'0 0.6
2017-Apr-18 07:01N 37°57' E 023°34'2 4.0
2017-Apr-18 06:30N 37°57' E 023°37'0 0.0
2017-Apr-18 06:00N 37°57' E 023°37'0 0.1
2017-Apr-18 05:30N 37°57' E 023°37'0 0.1
2017-Apr-18 05:00N 37°57' E 023°37'0 0.0
2017-Apr-18 04:31N 37°57' E 023°37'0 0.8
2017-Apr-18 04:00N 37°57' E 023°36'0 0.8
2017-Apr-18 03:31N 37°57' E 023°37'0 0.0
2017-Apr-18 03:00N 37°57' E 023°37'  

Dump ship's entire track history